ZSNB

Ningbo Lishe International Airport

Ningbo, China
TAF ZSNB 210135Z 2106/2206 13004MPS 6000 SCT030 TX33/2106Z TN26/2121Z TEMPO 2106/2112 TSRA BKN023 FEW033CB BECMG 2200/2201 36005MPS
Issued Valid From Valid To
Aug-21 @ 01:35 UTC
(16 hours ago)
Aug-21 @ 06:00 UTC
(12 hours ago)
Aug-22 @ 06:00 UTC
(in 12 hours)
Aug-21 @ 06:00 to Aug-22 @ 00:00
TAF ZSNB 210135Z 2106/2206 13004MPS 6000 SCT030 TX33/2106Z TN26/2121Z
Wind Visibility Clouds
130° at 8 knots 6,003 meters
  • Scattered at 3,000' AGL
Expired Click to View Aug-21 @ 06:00 to Aug-21 @ 12:00
TEMPO 2106/2112 TSRA BKN023 FEW033CB
Clouds Conditions
  • Broken at 2,300' AGL
  • Few at 3,300' AGL
  • Thunderstorm
  • Rain
Becoming Aug-22 @ 00:00 to Aug-22 @ 06:00
BECMG 2200/2201 36005MPS
Wind Visibility Clouds
360° at 10 knots 6,003 meters
  • Scattered at 3,000' AGL
TAF ZSNB 210135Z 2106/2206 13004MPS 6000 SCT030 TX33/2106Z TN26/2121Z TEMPO 2106/2112 TSRA BKN023 FEW033CB BECMG 2200/2201 36005MPS
Issued Aug-21 @ 01:35 UTC
(16 hours ago)
Valid From Aug-21 @ 06:00 UTC
(12 hours ago)
Valid To Aug-22 @ 06:00 UTC
(in 12 hours)
Aug-21 @ 06:00 - Aug-22 @ 00:00
Wind Visibility
130° at 8 knots 6,003 meters
Clouds
  • Scattered at 3,000' AGL
Aug-21 @ 06:00 - Aug-21 @ 12:00
Clouds
  • Broken at 2,300' AGL
  • Few at 3,300' AGL
Conditions
  • Thunderstorm
  • Rain
Becoming Aug-22 @ 00:00 - Aug-22 @ 06:00
Wind Visibility
360° at 10 knots 6,003 meters
Clouds
  • Scattered at 3,000' AGL